Time;durP1;ratioP1;P1;durP2;ratioP2;P2;SDS_P1;SDS_P2;PMS_P1;PMS_P2;Temp;Humidity;BMP_temperature;BMP_pressure;BME280_temperature;BME280_humidity;BME280_pressure;Samples;Min_cycle;Max_cycle;Signal;HPM_P1;HPM_P2
2023/04/07 00:02:10;;;;;;;16.00;12.10;;;;;;;4.72;86.78;100393.54;102707;277;121501;-54
2023/04/07 00:04:53;;;;;;;17.30;12.80;;;;;;;4.72;86.88;100388.67;102678;277;105850;-53
2023/04/07 00:07:28;;;;;;;18.80;12.90;;;;;;;4.73;86.90;100388.27;102701;277;114903;-54
2023/04/07 00:10:07;;;;;;;17.90;13.50;;;;;;;4.73;87.01;100385.36;102661;277;95315;-54
2023/04/07 00:12:45;;;;;;;17.80;13.00;;;;;;;4.75;86.85;100384.48;102728;277;97947;-55
2023/04/07 00:15:23;;;;;;;18.40;14.00;;;;;;;4.75;86.86;100382.90;102733;277;120621;-55
2023/04/07 00:18:03;;;;;;;20.50;14.10;;;;;;;4.75;86.95;100381.10;102684;277;105442;-53
2023/04/07 00:20:43;;;;;;;19.80;12.90;;;;;;;4.78;86.92;100378.29;102694;277;114896;-59
2023/04/07 00:23:24;;;;;;;19.00;14.30;;;;;;;4.82;87.00;100381.96;102687;277;94576;-59
2023/04/07 00:26:04;;;;;;;18.40;14.30;;;;;;;4.86;87.04;100377.48;102708;273;97911;-55
2023/04/07 00:28:41;;;;;;;20.50;14.10;;;;;;;4.89;87.10;100373.27;102735;277;119511;-55
2023/04/07 00:31:25;;;;;;;19.00;13.80;;;;;;;4.88;87.14;100370.95;102690;277;105199;-55
2023/04/07 00:34:08;;;;;;;17.30;14.10;;;;;;;4.88;87.03;100373.52;102687;277;114130;-55
2023/04/07 00:36:50;;;;;;;21.20;15.20;;;;;;;4.94;87.00;100373.45;102701;277;96568;-57
2023/04/07 00:39:26;;;;;;;18.40;13.30;;;;;;;4.98;87.09;100371.80;102707;277;96950;-58
2023/04/07 00:42:09;;;;;;;20.40;14.90;;;;;;;4.96;87.25;100367.00;102715;277;119237;-53
2023/04/07 00:44:49;;;;;;;21.60;15.60;;;;;;;4.99;87.32;100368.88;102707;277;105368;-53
2023/04/07 00:47:23;;;;;;;21.70;15.40;;;;;;;5.05;87.18;100363.09;102710;277;114747;-54
2023/04/07 00:50:03;;;;;;;;;;;;;;;5.06;87.12;100363.28;102681;277;96295;-55
2023/04/07 00:52:46;;;;;;;20.80;15.40;;;;;;;5.06;87.02;100360.33;102749;277;95618;-53
2023/04/07 00:55:21;;;;;;;19.90;15.60;;;;;;;5.02;87.14;100360.47;102695;277;121012;-54
2023/04/07 00:58:01;;;;;;;21.10;14.30;;;;;;;5.03;87.18;100356.50;102696;277;105538;-54
2023/04/07 01:00:48;;;;;;;18.90;13.60;;;;;;;5.08;87.07;100355.45;102710;277;114110;-53
2023/04/07 01:03:31;;;;;;;19.30;13.80;;;;;;;5.11;87.20;100353.54;102691;277;95700;-53
2023/04/07 01:06:15;;;;;;;21.20;14.90;;;;;;;5.13;87.15;100357.23;102711;277;97739;-55
2023/04/07 01:09:03;;;;;;;19.40;14.10;;;;;;;5.14;87.19;100348.72;102725;277;120822;-54
2023/04/07 01:11:54;;;;;;;21.80;15.10;;;;;;;5.12;87.38;100349.61;102702;271;105185;-55
2023/04/07 01:14:43;;;;;;;20.40;14.60;;;;;;;5.14;87.33;100353.02;102683;277;113448;-54
2023/04/07 01:17:26;;;;;;;18.30;12.50;;;;;;;5.11;87.36;100352.21;102665;277;96673;-54
2023/04/07 01:20:08;;;;;;;19.60;14.20;;;;;;;5.17;87.44;100350.96;102697;277;97969;-53
2023/04/07 01:22:47;;;;;;;19.10;13.80;;;;;;;5.20;87.36;100349.52;102720;277;119196;-54
2023/04/07 01:25:52;;;;;;;18.10;14.10;;;;;;;5.20;87.51;100347.23;102719;277;106390;-58
2023/04/07 01:28:50;;;;;;;18.80;14.30;;;;;;;5.26;87.45;100343.78;102689;277;114279;-58
2023/04/07 01:31:33;;;;;;;20.30;14.70;;;;;;;5.26;87.52;100340.91;102720;277;94557;-53
2023/04/07 01:34:17;;;;;;;21.70;15.20;;;;;;;5.27;87.41;100340.11;102726;277;97457;-53
2023/04/07 01:36:57;;;;;;;;;;;;;;;5.24;87.49;100340.55;102700;277;120894;-53
2023/04/07 01:39:37;;;;;;;20.30;14.60;;;;;;;5.25;87.49;100341.52;102691;277;105458;-54
2023/04/07 01:42:15;;;;;;;20.00;14.70;;;;;;;5.28;87.58;100337.41;102697;277;114884;-58
2023/04/07 01:44:53;;;;;;;20.60;14.60;;;;;;;5.32;87.58;100336.70;102702;277;95061;-57
2023/04/07 01:47:29;;;;;;;21.50;14.70;;;;;;;5.36;87.70;100332.50;102730;277;96700;-53
2023/04/07 01:50:08;;;;;;;21.80;15.00;;;;;;;5.36;87.69;100329.81;102740;277;120866;-53
2023/04/07 01:52:54;;;;;;;20.60;15.50;;;;;;;5.38;87.78;100333.38;102708;277;106026;-54
2023/04/07 01:55:32;;;;;;;21.70;15.70;;;;;;;5.42;87.69;100329.63;102686;277;114298;-53
2023/04/07 01:58:24;;;;;;;20.70;14.60;;;;;;;5.41;87.78;100326.33;102596;277;96844;-54
2023/04/07 02:01:11;;;;;;;24.30;16.10;;;;;;;5.48;87.74;100325.91;102517;277;96922;-54
2023/04/07 02:04:03;;;;;;;20.90;14.20;;;;;;;5.50;87.83;100325.19;102527;278;119932;-55
2023/04/07 02:06:49;;;;;;;21.40;15.40;;;;;;;5.50;87.91;100326.80;102558;278;105650;-57
2023/04/07 02:09:34;;;;;;;21.00;16.20;;;;;;;5.53;87.80;100325.80;102539;278;114247;-59
2023/04/07 02:12:19;;;;;;;21.40;15.90;;;;;;;5.56;87.79;100329.02;102547;278;97236;-55
2023/04/07 02:14:59;;;;;;;22.50;16.20;;;;;;;5.57;87.88;100330.02;102514;278;97954;-54
2023/04/07 02:17:36;;;;;;;23.20;15.40;;;;;;;5.62;87.80;100331.08;102563;278;120370;-53
2023/04/07 02:20:14;;;;;;;22.20;15.50;;;;;;;5.60;87.89;100329.02;102556;278;105371;-54
2023/04/07 02:22:52;;;;;;;22.50;17.00;;;;;;;5.64;87.99;100330.12;102572;266;115019;-54
2023/04/07 02:25:29;;;;;;;21.00;16.30;;;;;;;5.67;88.12;100330.34;102545;278;93372;-59
2023/04/07 02:28:06;;;;;;;23.50;16.40;;;;;;;5.69;88.03;100331.08;102547;278;97266;-59
2023/04/07 02:30:42;;;;;;;23.30;16.20;;;;;;;5.68;88.13;100329.88;102532;277;119436;-54
2023/04/07 02:33:27;;;;;;;24.90;18.00;;;;;;;5.68;88.09;100327.76;102513;278;105688;-55
2023/04/07 02:36:10;;;;;;;23.10;17.60;;;;;;;5.67;88.20;100327.70;102542;278;114660;-54
2023/04/07 02:38:45;;;;;;;23.30;17.20;;;;;;;5.72;88.36;100325.54;102558;278;96440;-54
2023/04/07 02:41:25;;;;;;;25.90;18.60;;;;;;;5.81;88.28;100323.54;102549;278;97533;-58
2023/04/07 02:44:08;;;;;;;27.20;19.70;;;;;;;5.87;88.18;100322.89;102542;278;119278;-58
2023/04/07 02:46:49;;;;;;;27.60;19.10;;;;;;;5.89;88.15;100319.52;102530;278;105795;-56
2023/04/07 02:49:31;;;;;;;27.50;19.40;;;;;;;5.89;88.04;100318.98;102551;278;114031;-56
2023/04/07 02:52:06;;;;;;;26.40;19.10;;;;;;;5.88;88.13;100321.20;102570;278;96932;-54
2023/04/07 02:54:40;;;;;;;27.90;19.50;;;;;;;5.84;88.27;100322.13;102547;278;98402;-53
2023/04/07 02:57:20;;;;;;;27.80;19.00;;;;;;;5.86;88.31;100321.30;102515;270;120865;-56
2023/04/07 02:59:58;;;;;;;26.80;18.60;;;;;;;5.91;88.46;100326.20;102525;278;105700;-57
2023/04/07 03:02:35;;;;;;;25.40;18.50;;;;;;;5.96;88.30;100323.60;102502;278;114745;-52
2023/04/07 03:05:11;;;;;;;28.20;19.60;;;;;;;6.00;88.52;100326.05;102509;278;94542;-53
2023/04/07 03:07:53;;;;;;;26.20;19.10;;;;;;;6.03;88.41;100326.81;102545;278;96606;-53
2023/04/07 03:10:37;;;;;;;28.20;20.20;;;;;;;6.04;88.32;100325.64;102545;278;119638;-56
2023/04/07 03:13:18;;;;;;;29.20;20.40;;;;;;;6.04;88.31;100327.17;102514;278;104032;-56
2023/04/07 03:16:04;;;;;;;26.70;19.70;;;;;;;6.04;88.22;100325.01;102512;278;114947;-59
2023/04/07 03:18:49;;;;;;;28.50;19.00;;;;;;;6.02;88.22;100328.89;102501;277;95709;-58
2023/04/07 03:21:31;;;;;;;24.80;18.90;;;;;;;6.02;88.30;100331.70;102561;278;95691;-54
2023/04/07 03:24:07;;;;;;;25.80;18.80;;;;;;;6.00;88.41;100333.33;102550;278;120668;-53
2023/04/07 03:26:44;;;;;;;24.70;18.80;;;;;;;6.02;88.50;100333.48;102617;278;104362;-57
2023/04/07 03:29:19;;;;;;;27.20;19.70;;;;;;;6.04;88.55;100328.33;102631;278;114182;-57
2023/04/07 03:32:01;;;;;;;26.10;19.00;;;;;;;6.06;88.40;100328.23;102636;277;94200;-57
2023/04/07 03:34:43;;;;;;;30.00;20.90;;;;;;;6.11;88.30;100329.48;102583;278;98137;-57
2023/04/07 03:37:21;;;;;;;29.00;21.30;;;;;;;6.10;88.50;100332.50;102602;278;119480;-58
2023/04/07 03:40:02;;;;;;;26.50;19.80;;;;;;;6.10;88.49;100325.67;102633;278;103808;-56
2023/04/07 03:42:47;;;;;;;30.10;19.80;;;;;;;6.13;88.56;100326.41;102566;278;114522;-65
2023/04/07 03:45:23;;;;;;;25.00;19.10;;;;;;;6.11;88.60;100329.16;102568;278;96124;-58
2023/04/07 03:48:03;;;;;;;25.80;19.00;;;;;;;6.13;88.81;100322.70;102594;278;97744;-58
2023/04/07 03:50:47;;;;;;;29.20;21.10;;;;;;;6.15;88.88;100326.16;102584;278;121038;-54
2023/04/07 03:53:29;;;;;;;28.30;20.10;;;;;;;6.18;88.88;100325.83;102577;278;103082;-54
2023/04/07 03:56:08;;;;;;;31.60;21.00;;;;;;;6.21;88.78;100330.02;102564;274;113928;-52
2023/04/07 03:58:53;;;;;;;32.30;20.90;;;;;;;6.23;88.70;100332.87;101899;278;896395;-53
2023/04/07 04:01:42;;;;;;;31.80;21.00;;;;;;;6.23;88.77;100329.23;102573;278;97320;-58
2023/04/07 04:04:17;;;;;;;26.80;19.20;;;;;;;6.24;88.88;100327.69;102587;278;121128;-59
2023/04/07 04:06:54;;;;;;;26.60;20.80;;;;;;;6.23;88.97;100327.65;102592;278;106438;-54
2023/04/07 04:09:36;;;;;;;30.30;22.20;;;;;;;6.29;89.00;100329.45;102566;278;114703;-52
2023/04/07 04:12:13;;;;;;;31.10;22.40;;;;;;;6.32;89.02;100327.34;102568;278;93809;-54
2023/04/07 04:14:53;;;;;;;30.30;21.10;;;;;;;6.34;88.89;100328.95;102567;278;97607;-54
2023/04/07 04:17:32;;;;;;;27.30;20.20;;;;;;;6.35;88.84;100330.58;102574;278;121326;-57
2023/04/07 04:20:12;;;;;;;29.30;20.90;;;;;;;6.37;88.96;100331.84;102575;278;105838;-56
2023/04/07 04:22:56;;;;;;;31.10;21.10;;;;;;;6.40;88.84;100335.42;102533;278;114756;-57
2023/04/07 04:25:38;;;;;;;28.80;20.40;;;;;;;6.47;88.86;100343.14;102564;266;95123;-58
2023/04/07 04:28:20;;;;;;;27.80;21.00;;;;;;;6.51;88.92;100342.88;102571;278;97883;-57
2023/04/07 04:31:00;;;;;;;29.80;20.60;;;;;;;6.52;88.89;100343.45;102558;278;121195;-54
2023/04/07 04:33:44;;;;;;;28.80;20.00;;;;;;;6.56;88.87;100340.17;102538;278;106124;-54
2023/04/07 04:36:27;;;;;;;28.80;20.10;;;;;;;6.58;88.75;100345.21;102545;278;115119;-54
2023/04/07 04:39:10;;;;;;;26.50;20.40;;;;;;;6.57;88.77;100347.75;102524;278;97195;-53
2023/04/07 04:42:00;;;;;;;26.40;20.50;;;;;;;6.58;89.17;100355.00;102565;278;96619;-58
2023/04/07 04:44:39;;;;;;;28.50;20.40;;;;;;;6.58;89.03;100352.46;102546;278;121330;-58
2023/04/07 04:47:22;;;;;;;28.50;21.00;;;;;;;6.60;89.20;100355.91;102573;266;105567;-54
2023/04/07 04:50:01;;;;;;;24.80;19.20;;;;;;;6.62;89.14;100351.89;102507;278;113429;-53
2023/04/07 04:52:43;;;;;;;26.50;20.00;;;;;;;6.60;89.16;100357.96;102515;278;96313;-52
2023/04/07 04:55:21;;;;;;;26.70;19.20;;;;;;;6.61;89.18;100356.69;102532;278;97418;-55
2023/04/07 04:57:58;;;;;;;22.80;18.20;;;;;;;6.62;89.17;100356.19;102535;278;120311;-58
2023/04/07 05:00:38;;;;;;;25.80;20.30;;;;;;;6.65;89.39;100354.21;102598;278;105465;-53
2023/04/07 05:03:14;;;;;;;24.70;19.10;;;;;;;6.67;89.31;100350.29;102605;278;114566;-54
2023/04/07 05:05:52;;;;;;;27.20;19.80;;;;;;;6.69;89.22;100356.14;102596;278;93696;-58
2023/04/07 05:08:32;;;;;;;24.80;19.70;;;;;;;6.75;89.27;100352.44;102593;278;97650;-58
2023/04/07 05:11:11;;;;;;;24.10;19.20;;;;;;;6.72;89.29;100353.65;102594;278;119650;-53
2023/04/07 05:13:51;;;;;;;26.90;18.30;;;;;;;6.76;89.44;100351.08;102600;277;104800;-53
2023/04/07 05:16:33;;;;;;;25.20;18.40;;;;;;;6.75;89.38;100351.17;102593;278;112425;-57
2023/04/07 05:19:15;;;;;;;25.80;18.60;;;;;;;6.79;89.34;100351.12;102541;278;97169;-57
2023/04/07 05:21:58;;;;;;;23.60;19.30;;;;;;;6.82;89.27;100354.13;102578;278;97570;-57
2023/04/07 05:24:34;;;;;;;26.60;20.70;;;;;;;6.84;89.37;100355.67;102637;278;121217;-56
2023/04/07 05:27:08;;;;;;;26.10;20.10;;;;;;;6.87;89.63;100359.27;102634;278;106219;-53
2023/04/07 05:29:53;;;;;;;27.90;20.10;;;;;;;6.91;89.48;100357.59;102577;278;113569;-53
2023/04/07 05:32:34;;;;;;;25.00;19.30;;;;;;;6.97;89.32;100355.39;102552;278;95620;-51
2023/04/07 05:35:16;;;;;;;25.70;19.80;;;;;;;7.04;89.25;100354.35;102558;278;98192;-53
2023/04/07 05:37:55;;;;;;;26.50;20.70;;;;;;;7.06;89.50;100357.00;102555;278;120873;-53
2023/04/07 05:40:33;;;;;;;24.20;18.90;;;;;;;7.05;89.41;100356.20;102574;278;105785;-57
2023/04/07 05:43:17;;;;;;;26.70;20.00;;;;;;;7.08;89.55;100358.11;102588;278;114716;-58
2023/04/07 05:45:53;;;;;;;26.50;21.00;;;;;;;7.12;89.48;100354.52;102586;278;95542;-53
2023/04/07 05:48:38;;;;;;;29.00;19.90;;;;;;;7.17;89.52;100356.00;102592;278;98122;-54
2023/04/07 05:51:17;;;;;;;24.50;19.00;;;;;;;7.24;89.47;100354.38;102576;278;119292;-53
2023/04/07 05:53:58;;;;;;;22.00;17.70;;;;;;;7.30;89.36;100356.15;102532;278;105875;-53
2023/04/07 05:56:34;;;;;;;23.90;19.00;;;;;;;7.33;89.61;100356.17;102541;278;114623;-54
2023/04/07 05:59:16;;;;;;;26.10;19.00;;;;;;;7.42;89.37;100352.11;102558;278;95068;-55
2023/04/07 06:02:01;;;;;;;;;;;;;;;7.45;89.48;100355.56;102562;278;98205;-57
2023/04/07 06:04:46;;;;;;;24.40;18.70;;;;;;;7.48;89.44;100354.65;102581;278;120542;-57
2023/04/07 06:07:25;;;;;;;23.90;18.40;;;;;;;7.45;89.27;100351.95;102508;278;105202;-54
2023/04/07 06:10:08;;;;;;;25.00;18.20;;;;;;;7.45;89.33;100354.62;102535;278;115087;-52
2023/04/07 06:12:50;;;;;;;24.60;18.60;;;;;;;7.48;89.34;100356.46;102565;278;93993;-53
2023/04/07 06:15:29;;;;;;;24.60;18.90;;;;;;;7.48;89.33;100356.47;102565;278;97216;-57
2023/04/07 06:18:09;;;;;;;27.20;20.40;;;;;;;7.46;89.45;100358.63;102534;278;120976;-59
2023/04/07 06:20:48;;;;;;;23.10;17.70;;;;;;;7.46;89.37;100357.23;102572;278;105401;-55
2023/04/07 06:23:27;;;;;;;24.60;18.40;;;;;;;7.50;89.24;100352.77;102582;278;114403;-53
2023/04/07 06:26:10;;;;;;;23.40;18.10;;;;;;;7.56;89.24;100347.65;102578;278;96648;-54
2023/04/07 06:28:54;;;;;;;22.50;17.90;;;;;;;7.62;89.16;100345.95;102545;278;98034;-54
2023/04/07 06:31:36;;;;;;;24.90;18.90;;;;;;;7.70;89.16;100347.48;102567;278;120996;-53
2023/04/07 06:34:21;;;;;;;23.80;18.00;;;;;;;7.82;89.14;100349.48;102604;278;105057;-53
2023/04/07 06:36:59;;;;;;;22.50;18.20;;;;;;;7.89;89.09;100348.55;102593;278;114220;-54
2023/04/07 06:39:38;;;;;;;21.80;17.00;;;;;;;7.97;89.15;100346.76;102513;278;95077;-54
2023/04/07 06:42:16;;;;;;;22.70;17.60;;;;;;;8.03;89.24;100343.38;102561;278;96400;-54
2023/04/07 06:44:53;;;;;;;20.90;16.50;;;;;;;8.11;89.11;100347.11;102570;277;120230;-54
2023/04/07 06:47:37;;;;;;;23.60;18.20;;;;;;;8.21;89.10;100343.60;102599;278;103568;-53
2023/04/07 06:50:19;;;;;;;21.60;18.30;;;;;;;8.31;89.05;100345.38;102548;278;114806;-54
2023/04/07 06:53:00;;;;;;;23.10;17.20;;;;;;;8.40;89.05;100345.66;102568;278;95122;-59
2023/04/07 06:55:34;;;;;;;26.30;19.50;;;;;;;8.52;88.85;100345.14;102569;278;98464;-53
2023/04/07 06:58:11;;;;;;;24.90;17.00;;;;;;;8.55;88.98;100349.40;102519;278;119187;-53
2023/04/07 07:00:49;;;;;;;25.10;17.20;;;;;;;8.66;88.80;100351.52;102562;278;103180;-57
2023/04/07 07:03:26;;;;;;;19.00;16.10;;;;;;;8.78;88.73;100354.60;102541;278;114327;-57
2023/04/07 07:06:03;;;;;;;22.90;17.60;;;;;;;8.82;88.70;100353.70;102518;278;94990;-59
2023/04/07 07:08:38;;;;;;;22.90;18.00;;;;;;;8.81;88.49;100350.48;102542;277;96796;-58
2023/04/07 07:11:21;;;;;;;25.50;18.20;;;;;;;8.72;88.69;100349.31;102520;278;119564;-59
2023/04/07 07:14:01;;;;;;;20.00;15.70;;;;;;;8.69;88.34;100352.38;102496;278;105411;-53
2023/04/07 07:16:44;;;;;;;20.90;16.30;;;;;;;8.63;88.19;100347.40;102502;278;114784;-57
2023/04/07 07:19:20;;;;;;;23.60;15.50;;;;;;;8.58;88.17;100347.99;102522;278;96856;-55
2023/04/07 07:22:02;;;;;;;19.20;15.00;;;;;;;8.60;88.10;100345.02;102516;278;98221;-56
2023/04/07 07:24:41;;;;;;;22.00;15.10;;;;;;;8.65;88.34;100344.29;102532;278;120830;-57
2023/04/07 07:27:21;;;;;;;21.40;16.60;;;;;;;8.74;88.30;100343.96;102564;278;105207;-54
2023/04/07 07:30:05;;;;;;;23.50;16.70;;;;;;;8.88;88.27;100348.03;102555;278;114275;-54
2023/04/07 07:32:41;;;;;;;19.30;16.70;;;;;;;8.92;88.23;100355.11;102597;278;93857;-53
2023/04/07 07:35:21;;;;;;;;;;;;;;;8.98;88.12;100357.97;102648;278;96724;-55
2023/04/07 07:37:58;;;;;;;20.40;15.50;;;;;;;9.12;88.20;100360.40;102455;278;119667;-53
2023/04/07 07:40:36;;;;;;;20.80;14.70;;;;;;;9.26;88.05;100361.77;102641;278;105778;-58
2023/04/07 07:43:13;;;;;;;19.80;15.20;;;;;;;9.36;88.03;100359.39;102589;278;113736;-57
2023/04/07 07:45:54;;;;;;;18.80;15.30;;;;;;;9.41;87.80;100359.70;102565;278;93922;-58
2023/04/07 07:48:30;;;;;;;19.20;14.20;;;;;;;9.44;87.65;100362.34;102577;278;98178;-53
2023/04/07 07:51:08;;;;;;;22.50;14.40;;;;;;;9.40;87.39;100365.12;102569;278;119910;-59
2023/04/07 07:53:44;;;;;;;19.50;15.30;;;;;;;9.39;87.45;100366.85;102590;278;105694;-53
2023/04/07 07:56:20;;;;;;;17.30;14.00;;;;;;;9.40;87.36;100366.40;102525;278;114586;-54
2023/04/07 07:59:01;;;;;;;17.00;13.70;;;;;;;9.46;87.27;100370.02;102588;278;93684;-58
2023/04/07 08:01:42;;;;;;;17.70;14.00;;;;;;;9.37;87.25;100373.36;102575;278;96388;-54
2023/04/07 08:04:28;;;;;;;17.40;14.80;;;;;;;9.32;87.41;100368.45;102546;277;120715;-54
2023/04/07 08:07:07;;;;;;;18.90;14.00;;;;;;;9.31;87.28;100369.23;102541;278;105092;-54
2023/04/07 08:09:45;;;;;;;21.70;13.60;;;;;;;9.28;87.04;100372.34;102510;278;114745;-54
2023/04/07 08:12:26;;;;;;;17.20;13.50;;;;;;;9.30;87.04;100370.52;102502;278;96003;-55
2023/04/07 08:15:04;;;;;;;18.40;11.70;;;;;;;9.31;87.14;100369.64;102504;278;98380;-54
2023/04/07 08:17:42;;;;;;;19.80;14.00;;;;;;;9.28;87.10;100370.59;102497;278;119700;-53
2023/04/07 08:20:20;;;;;;;16.60;14.00;;;;;;;9.29;87.18;100377.09;102531;278;104243;-55
2023/04/07 08:23:02;;;;;;;15.50;13.50;;;;;;;9.30;87.43;100373.37;102527;278;114576;-57
2023/04/07 08:25:38;;;;;;;20.40;14.20;;;;;;;9.41;87.20;100372.59;102505;278;96458;-53
2023/04/07 08:28:21;;;;;;;17.60;14.00;;;;;;;9.48;87.13;100371.85;102523;277;97745;-53
2023/04/07 08:31:01;;;;;;;18.40;12.70;;;;;;;9.66;87.35;100363.63;102479;279;120586;-59
2023/04/07 08:33:46;;;;;;;17.60;12.90;;;;;;;9.88;87.44;100366.30;102551;278;103710;-59
2023/04/07 08:36:27;;;;;;;18.90;13.10;;;;;;;9.94;87.37;100370.09;102605;278;113640;-54
2023/04/07 08:39:07;;;;;;;16.90;13.30;;;;;;;9.90;87.30;100370.41;102612;278;94177;-53
2023/04/07 08:41:49;;;;;;;15.80;13.10;;;;;;;9.97;87.29;100365.04;102622;278;98418;-60
2023/04/07 08:44:30;;;;;;;15.50;13.80;;;;;;;9.99;87.20;100364.80;102589;278;119738;-59
2023/04/07 08:47:11;;;;;;;16.00;12.90;;;;;;;9.97;87.02;100368.14;102590;278;105780;-54
2023/04/07 08:49:50;;;;;;;23.00;13.00;;;;;;;10.05;87.14;100363.48;102607;278;115120;-54
2023/04/07 08:52:35;;;;;;;17.20;12.40;;;;;;;10.42;87.50;100357.72;102523;278;96894;-58
2023/04/07 08:55:11;;;;;;;15.10;12.70;;;;;;;10.65;87.10;100356.79;102599;278;98764;-58
2023/04/07 08:57:49;;;;;;;14.60;11.70;;;;;;;10.82;86.92;100357.68;102589;278;121155;-55
2023/04/07 09:00:27;;;;;;;19.40;14.20;;;;;;;11.02;86.46;100358.75;102571;278;105668;-59
2023/04/07 09:03:06;;;;;;;18.80;13.00;;;;;;;11.34;86.38;100354.55;102576;277;114095;-60
2023/04/07 09:05:45;;;;;;;16.90;13.10;;;;;;;11.42;86.03;100355.33;102550;278;95899;-59
2023/04/07 09:08:25;;;;;;;16.10;12.10;;;;;;;11.37;85.63;100356.46;102563;278;98482;-59
2023/04/07 09:11:01;;;;;;;15.10;12.80;;;;;;;11.41;85.50;100355.61;102593;278;121314;-55
2023/04/07 09:13:39;;;;;;;19.20;12.80;;;;;;;11.51;85.23;100357.16;102580;278;104795;-58
2023/04/07 09:16:20;;;;;;;12.80;11.50;;;;;;;11.41;84.69;100353.48;102579;278;115091;-54
2023/04/07 09:18:56;;;;;;;14.60;12.00;;;;;;;11.16;84.72;100359.97;102558;278;96664;-54
2023/04/07 09:21:51;;;;;;;15.20;11.70;;;;;;;11.26;84.65;100349.50;102548;278;96521;-55
2023/04/07 09:24:30;;;;;;;13.50;11.00;;;;;;;11.22;84.66;100351.09;102502;278;120262;-55
2023/04/07 09:27:18;;;;;;;17.90;12.00;;;;;;;11.30;84.64;100347.67;102592;278;105525;-57
2023/04/07 09:30:15;;;;;;;15.70;12.00;;;;;;;11.42;84.92;100346.58;102585;278;114301;-58
2023/04/07 09:32:53;;;;;;;14.40;11.60;;;;;;;11.66;85.07;100345.29;102571;278;93407;-58
2023/04/07 09:35:29;;;;;;;13.70;11.10;;;;;;;11.78;84.65;100340.14;102647;277;96681;-58
2023/04/07 09:38:09;;;;;;;15.70;14.00;;;;;;;11.85;84.24;100341.06;102560;278;118962;-56
2023/04/07 09:40:48;;;;;;;13.50;12.00;;;;;;;11.89;84.11;100341.05;102476;278;104632;-59
2023/04/07 09:43:22;;;;;;;13.50;10.20;;;;;;;11.77;83.92;100346.15;102564;277;115165;-60
2023/04/07 09:46:12;;;;;;;15.80;11.60;;;;;;;11.58;83.97;100347.77;102610;270;93775;-60
2023/04/07 09:49:01;;;;;;;13.90;11.50;;;;;;;11.49;84.03;100347.48;102571;278;97868;-59
2023/04/07 09:51:54;;;;;;;14.90;11.40;;;;;;;11.52;84.13;100347.84;102600;278;121272;-60
2023/04/07 09:54:46;;;;;;;15.40;12.70;;;;;;;11.48;83.99;100348.71;102595;278;103945;-59
2023/04/07 09:57:32;;;;;;;15.10;11.40;;;;;;;11.45;84.12;100349.86;102604;278;112662;-60
2023/04/07 10:00:13;;;;;;;15.60;12.80;;;;;;;11.47;84.15;100349.92;102606;278;96496;-58
2023/04/07 10:02:51;;;;;;;17.50;11.50;;;;;;;11.58;84.00;100354.05;102598;278;97723;-53
2023/04/07 10:05:32;;;;;;;16.70;13.20;;;;;;;11.65;84.19;100349.55;102556;278;120877;-53
2023/04/07 10:08:15;;;;;;;15.40;13.00;;;;;;;11.79;84.31;100346.98;102586;278;105967;-54
2023/04/07 10:10:59;;;;;;;15.40;12.10;;;;;;;11.97;84.24;100350.77;102573;278;114791;-54
2023/04/07 10:13:37;;;;;;;14.80;10.90;;;;;;;12.01;84.08;100354.98;102544;278;96367;-54
2023/04/07 10:16:16;;;;;;;14.10;11.00;;;;;;;12.24;83.77;100350.70;102580;278;97576;-60
2023/04/07 10:18:55;;;;;;;14.60;11.70;;;;;;;12.46;83.76;100352.45;102581;278;119180;-58
2023/04/07 10:21:31;;;;;;;12.60;11.10;;;;;;;12.74;83.65;100353.20;102626;278;104490;-58
2023/04/07 10:24:23;;;;;;;13.90;11.20;;;;;;;12.78;83.29;100352.89;102612;278;114575;-58
2023/04/07 10:27:07;;;;;;;14.90;12.20;;;;;;;12.69;83.18;100350.02;102587;278;93981;-53
2023/04/07 10:29:47;;;;;;;15.30;12.50;;;;;;;12.59;82.71;100356.09;102584;278;98387;-54
2023/04/07 10:32:28;;;;;;;16.20;11.60;;;;;;;12.27;82.62;100357.70;102533;278;121579;-57
2023/04/07 10:35:09;;;;;;;17.60;13.30;;;;;;;12.08;82.86;100359.11;102573;278;103302;-53
2023/04/07 10:38:04;;;;;;;22.90;15.00;;;;;;;12.12;82.75;100360.79;102600;278;114145;-54
2023/04/07 10:40:43;;;;;;;19.20;12.90;;;;;;;12.11;82.80;100362.67;102594;278;92707;-53
2023/04/07 10:43:48;;;;;;;14.60;11.00;;;;;;;12.20;82.77;100361.50;102596;278;98132;-54
2023/04/07 10:47:04;;;;;;;19.80;12.50;;;;;;;12.14;82.93;100366.81;102526;278;119957;-57
2023/04/07 10:50:20;;;;;;;23.70;15.60;;;;;;;12.09;83.23;100370.12;102532;278;105965;-58
2023/04/07 10:53:11;;;;;;;26.40;16.60;;;;;;;12.17;83.07;100369.81;102556;278;112517;-65
2023/04/07 10:55:54;;;;;;;23.40;14.90;;;;;;;12.18;83.27;100371.70;102603;278;96796;-61
2023/04/07 10:58:34;;;;;;;14.00;11.60;;;;;;;12.22;83.30;100368.97;102586;278;97364;-64
2023/04/07 11:01:26;;;;;;;15.10;11.60;;;;;;;12.25;83.30;100371.45;102551;278;121137;-58
2023/04/07 11:04:05;;;;;;;15.70;12.30;;;;;;;12.29;83.20;100369.77;102581;277;104384;-58
2023/04/07 11:06:52;;;;;;;13.90;11.30;;;;;;;12.28;83.28;100369.95;102596;278;113054;-58
2023/04/07 11:09:33;;;;;;;14.80;11.20;;;;;;;12.26;83.13;100369.58;102501;278;97795;-58
2023/04/07 11:12:22;;;;;;;15.80;10.70;;;;;;;12.26;83.03;100371.70;102564;278;96973;-55
2023/04/07 11:15:18;;;;;;;18.40;11.80;;;;;;;12.17;83.29;100372.86;102520;278;119018;-55
2023/04/07 11:18:15;;;;;;;14.50;12.00;;;;;;;12.26;83.34;100374.53;102529;278;106267;-58
2023/04/07 11:20:53;;;;;;;14.60;11.30;;;;;;;12.33;83.15;100372.48;102531;275;115208;-57
2023/04/07 11:23:29;;;;;;;13.40;10.50;;;;;;;12.38;83.21;100374.39;102549;278;97090;-58
2023/04/07 11:26:05;;;;;;;16.20;11.30;;;;;;;12.50;83.16;100373.57;102574;278;97550;-53
2023/04/07 11:28:50;;;;;;;13.20;9.70;;;;;;;12.58;83.17;100377.05;102528;277;120623;-59
2023/04/07 11:31:33;;;;;;;17.60;11.70;;;;;;;12.45;83.04;100375.67;102568;278;105435;-54
2023/04/07 11:34:11;;;;;;;12.70;10.30;;;;;;;12.51;82.98;100378.14;102571;278;111920;-55
2023/04/07 11:36:50;;;;;;;14.30;10.30;;;;;;;12.63;83.01;100378.02;102617;278;93288;-60
2023/04/07 11:39:30;;;;;;;15.90;10.70;;;;;;;12.60;83.04;100373.68;102627;278;96979;-55
2023/04/07 11:42:09;;;;;;;14.20;9.90;;;;;;;12.59;82.90;100376.73;102691;278;120030;-58
2023/04/07 11:44:54;;;;;;;15.70;10.50;;;;;;;12.55;82.98;100374.21;102602;278;105070;-57
2023/04/07 11:47:36;;;;;;;;;;;;;;;12.43;82.92;100376.95;102507;278;113556;-54
2023/04/07 11:50:12;;;;;;;12.30;9.70;;;;;;;12.32;83.09;100374.28;102501;278;93257;-56
2023/04/07 11:52:50;;;;;;;12.80;9.70;;;;;;;12.22;83.11;100375.98;102570;278;97634;-56
2023/04/07 11:55:26;;;;;;;15.00;10.60;;;;;;;12.15;83.43;100378.05;102521;278;120351;-57
2023/04/07 11:58:16;;;;;;;14.00;10.60;;;;;;;12.08;83.36;100376.27;102144;278;574710;-56
2023/04/07 12:01:13;;;;;;;15.60;9.60;;;;;;;12.00;83.64;100381.48;102594;278;113660;-59
2023/04/07 12:04:12;;;;;;;14.30;9.90;;;;;;;11.91;83.94;100379.73;102627;278;95479;-57
2023/04/07 12:06:55;;;;;;;12.30;9.80;;;;;;;11.99;84.13;100378.75;102577;278;97571;-60
2023/04/07 12:09:34;;;;;;;32.00;11.40;;;;;;;11.96;84.88;100382.66;102560;278;119985;-59
2023/04/07 12:12:12;;;;;;;16.80;11.60;;;;;;;11.90;84.86;100384.27;102631;278;104146;-58
2023/04/07 12:14:51;;;;;;;17.20;12.50;;;;;;;11.86;85.01;100387.42;102585;278;112419;-59
2023/04/07 12:17:34;;;;;;;15.30;11.90;;;;;;;11.84;85.00;100384.98;102604;278;96952;-62